Dover AFB, DE

8:23 PM EST on January 22, 2017 (GMT -0500)
Dover Air Force Base

Weather History for KDOV - May, 2013

Change the Weather History Date:

Sunday, May 19, 2013

  Actual Average Record
Temperature  
Mean Temperature 64 °F -  
Max Temperature 69 °F 76 °F 95 °F (1962)
Min Temperature 59 °F 55 °F 39 °F (1976)
Degree Days  
Heating Degree Days 2    
Growing Degree Days 14 (Base 50)    
Moisture  
Dew Point 63 °F    
Average Humidity 100    
Maximum Humidity 100    
Minimum Humidity 94    
Precipitation  
Precipitation 0.19 in - - ()
Sea Level Pressure  
Sea Level Pressure 30.18 in    
Wind  
Wind Speed 10 mph (ESE)    
Max Wind Speed 17 mph    
Max Gust Speed 26 mph    
Visibility 7 miles    
Events Rain    
Averages and records for this station are not official NWS values.
T = Trace of Precipitation, MM = Missing Value Source: NWS Daily Summary

Daily Weather History Graph

Daily Weather History Graph

Search for Another Location

Airport or City:

Trip Planner

Search our weather history database for the weather conditions in past years. The results will help you decide how hot, cold, wet, or windy it might be!

Date:

Astronomy

May. 19, 2013 Rise Set
Actual Time 5:45 AM EDT 8:11 PM EDT
Civil Twilight 5:14 AM EDT 8:42 PM EDT
Nautical Twilight 4:37 AM EDT 9:20 PM EDT
Astronomical Twilight 3:55 AM EDT 10:02 PM EDT
Moon 2:16 PM EDT (5/19) 2:04 AM EDT (5/19)
Length of Visible Light 15h 27m
Length of Day
14h 26m
Waxing Gibbous, 65% of the Moon is Illuminated
May 19
Waxing Gibbous
May 25
Full
May 31
Last Quarter
Jun 8
New
Jun 16
First Quarter

Hourly Weather History & Observations

Time (EDT) Temp. Dew Point Humidity Pressure Visibility Wind Dir Wind Speed Gust Speed Precip Events Conditions
12:08 AM 60.8 °F 60.8 °F 100% 30.23 in 4.0 mi ESE 11.5 mph - N/A Rain Light Rain
12:13 AM 60.8 °F 60.8 °F 100% 30.23 in 3.0 mi ESE 10.4 mph - N/A Rain Light Rain
12:18 AM 60.8 °F 60.8 °F 100% 30.23 in 2.5 mi ESE 11.5 mph - N/A Rain Light Rain
12:23 AM 60.8 °F 60.8 °F 100% 30.23 in 3.0 mi ESE 11.5 mph - N/A Rain Light Rain
12:28 AM 60.8 °F 60.8 °F 100% 30.23 in 3.0 mi ESE 12.7 mph - N/A Rain Light Rain
12:43 AM 60.8 °F 60.8 °F 100% 30.22 in 5.0 mi ESE 12.7 mph - N/A Rain Light Rain
12:48 AM 60.8 °F 60.8 °F 100% 30.22 in 5.0 mi ESE 10.4 mph - N/A Rain Light Rain
12:53 AM 60.8 °F 60.8 °F 100% 30.22 in 5.0 mi ESE 10.4 mph - N/A Rain Light Rain
12:58 AM 60.8 °F 60.8 °F 100% 30.23 in 5.0 mi ESE 10.4 mph - 0.05 in Rain Light Rain
1:03 AM 60.8 °F 60.8 °F 100% 30.22 in 5.0 mi ESE 11.5 mph - N/A Rain Light Rain
1:08 AM 60.8 °F 60.8 °F 100% 30.22 in 6.0 mi ESE 12.7 mph - N/A Rain Light Rain
1:18 AM 60.8 °F 60.8 °F 100% 30.21 in 7.0 mi ESE 13.8 mph 20.7 mph N/A Rain Light Rain
1:52 AM 60.8 °F 60.8 °F 100% 30.21 in 10.0 mi SE 13.8 mph - N/A   Overcast
1:57 AM 60.8 °F 60.8 °F 100% 30.21 in 10.0 mi SE 12.7 mph - N/A   Overcast
1:58 AM 60.6 °F 60.6 °F 100% 30.22 in 10.0 mi SE 12.7 mph - 0.03 in   Overcast
2:13 AM 60.8 °F 60.8 °F 100% 30.21 in 10.0 mi SE 16.1 mph 24.2 mph N/A   Overcast
2:18 AM 60.8 °F 60.8 °F 100% 30.21 in 10.0 mi SE 17.3 mph 24.2 mph N/A   Overcast
2:25 AM 60.8 °F 60.8 °F 100% 30.21 in 8.0 mi ESE 11.5 mph 26.5 mph N/A Rain Light Rain
2:30 AM 60.8 °F 60.8 °F 100% 30.21 in 6.0 mi ESE 13.8 mph 26.5 mph N/A Rain Light Rain
2:58 AM 60.1 °F 60.1 °F 100% 30.22 in 7.0 mi SE 12.7 mph 23.0 mph 0.03 in Rain Light Rain
3:08 AM 60.8 °F 60.8 °F 100% 30.20 in 8.0 mi ESE 12.7 mph - N/A Rain Light Rain
3:12 AM 60.8 °F 60.8 °F 100% 30.21 in 9.0 mi ESE 10.4 mph - N/A   Overcast
3:17 AM 59.0 °F 59.0 °F 100% 30.20 in 10.0 mi ESE 13.8 mph 20.7 mph N/A   Overcast
3:28 AM 59.0 °F 59.0 °F 100% 30.20 in 10.0 mi SE 15.0 mph 21.9 mph N/A Rain Light Rain
3:33 AM 59.0 °F 59.0 °F 100% 30.20 in 8.0 mi ESE 17.3 mph - N/A Rain Light Rain
3:48 AM 59.0 °F 59.0 °F 100% 30.20 in 10.0 mi ESE 15.0 mph 20.7 mph N/A   Overcast
3:58 AM 59.4 °F 59.4 °F 100% 30.21 in 9.0 mi ESE 11.5 mph - 0.02 in   Overcast
4:43 AM 59.0 °F 59.0 °F 100% 30.19 in 9.0 mi ESE 15.0 mph - N/A   Overcast
4:58 AM 59.5 °F 59.5 °F 100% 30.20 in 8.0 mi East 12.7 mph 20.7 mph N/A   Overcast
5:18 AM 59.0 °F 59.0 °F 100% 30.19 in 6.0 mi ESE 10.4 mph 19.6 mph N/A   Overcast
5:38 AM 59.0 °F 59.0 °F 100% 30.19 in 7.0 mi ESE 10.4 mph - N/A Rain Light Rain
5:43 AM 59.0 °F 59.0 °F 100% 30.19 in 5.0 mi ESE 12.7 mph - N/A Rain Light Rain
5:48 AM 59.0 °F 59.0 °F 100% 30.19 in 4.0 mi ESE 13.8 mph - N/A Rain Light Rain
5:58 AM 59.9 °F 59.9 °F 100% 30.20 in 5.0 mi ESE 12.7 mph - 0.02 in Rain Light Rain
6:05 AM 60.8 °F 60.8 °F 100% 30.19 in 8.0 mi ESE 11.5 mph 18.4 mph N/A   Overcast
6:10 AM 60.8 °F 60.8 °F 100% 30.19 in 9.0 mi ESE 11.5 mph - N/A   Overcast
6:58 AM 60.3 °F 60.3 °F 100% 30.20 in 7.0 mi ESE 11.5 mph - 0.00 in   Overcast
7:58 AM 61.0 °F 61.0 °F 100% 30.21 in 9.0 mi ESE 10.4 mph - N/A   Overcast
8:58 AM 61.3 °F 61.3 °F 100% 30.21 in 10.0 mi SE 12.7 mph - N/A   Overcast
9:58 AM 62.4 °F 62.4 °F 100% 30.22 in 10.0 mi SE 8.1 mph - N/A   Overcast
10:03 AM 62.6 °F 62.6 °F 100% 30.21 in 10.0 mi SE 8.1 mph - N/A   Overcast
10:58 AM 63.5 °F 63.5 °F 100% 30.21 in 8.0 mi East 9.2 mph - N/A   Overcast
11:03 AM 62.6 °F 62.6 °F 100% 30.20 in 6.0 mi ESE 8.1 mph - N/A   Overcast
11:18 AM 62.6 °F 62.6 °F 100% 30.20 in 5.0 mi ESE 8.1 mph - N/A   Overcast
11:48 AM 62.6 °F 62.6 °F 100% 30.20 in 6.0 mi ESE 6.9 mph - N/A   Overcast
11:58 AM 63.5 °F 63.5 °F 100% 30.21 in 6.0 mi ESE 6.9 mph - N/A   Overcast
12:38 PM 64.4 °F 64.4 °F 100% 30.19 in 9.0 mi East 9.2 mph - N/A   Overcast
12:58 PM 64.0 °F 63.9 °F 99% 30.19 in 9.0 mi ESE 10.4 mph - N/A   Overcast
1:18 PM 64.4 °F 62.6 °F 94% 30.17 in 7.0 mi East 11.5 mph - N/A   Overcast
1:58 PM 64.4 °F 64.2 °F 99% 30.17 in 9.0 mi East 9.2 mph - N/A   Overcast
2:28 PM 64.4 °F 64.4 °F 100% 30.16 in 10.0 mi East 8.1 mph - N/A   Overcast
2:38 PM 64.4 °F 64.4 °F 100% 30.15 in 10.0 mi ESE 8.1 mph - N/A   Overcast
2:58 PM 65.1 °F 64.8 °F 99% 30.15 in 10.0 mi ESE 8.1 mph - N/A   Overcast
3:23 PM 64.4 °F 64.4 °F 100% 30.14 in 10.0 mi East 6.9 mph - N/A   Mostly Cloudy
3:58 PM 66.2 °F 65.8 °F 99% 30.15 in 10.0 mi East 4.6 mph - N/A   Mostly Cloudy
4:58 PM 68.5 °F 67.8 °F 98% 30.13 in 10.0 mi ENE 5.8 mph - N/A   Scattered Clouds
5:28 PM 68.0 °F 68.0 °F 100% 30.12 in 9.0 mi East 6.9 mph - N/A   Mostly Cloudy
5:38 PM 68.0 °F 66.2 °F 94% 30.12 in 9.0 mi ENE 8.1 mph - N/A   Scattered Clouds
5:58 PM 66.4 °F 66.0 °F 99% 30.13 in 10.0 mi East 8.1 mph - N/A   Clear
6:58 PM 66.4 °F 66.0 °F 99% 30.13 in 10.0 mi East 5.8 mph - N/A   Clear
7:58 PM 63.9 °F 63.5 °F 99% 30.14 in 7.0 mi ENE 5.8 mph - N/A   Partly Cloudy
8:28 PM 64.4 °F 64.4 °F 100% 30.12 in 6.0 mi ENE 8.1 mph - N/A   Mostly Cloudy
8:33 PM 64.4 °F 64.4 °F 100% 30.12 in 6.0 mi East 6.9 mph - N/A   Mostly Cloudy
8:43 PM 64.4 °F 64.4 °F 100% 30.12 in 5.0 mi East 6.9 mph - N/A   Scattered Clouds
8:58 PM 63.5 °F 63.5 °F 100% 30.13 in 4.0 mi East 5.8 mph - N/A   Partly Cloudy
9:08 PM 62.6 °F 62.6 °F 100% 30.13 in 7.0 mi East 4.6 mph - N/A   Scattered Clouds
9:13 PM 62.6 °F 62.6 °F 100% 30.13 in 8.0 mi ENE 5.8 mph - N/A   Mostly Cloudy
9:48 PM 64.4 °F 64.4 °F 100% 30.15 in 8.0 mi East 3.5 mph - N/A   Mostly Cloudy
9:53 PM 64.4 °F 64.4 °F 100% 30.15 in 7.0 mi ENE 3.5 mph - N/A   Scattered Clouds
9:58 PM 63.7 °F 63.7 °F 100% 30.16 in 7.0 mi ENE 1.2 mph - N/A   Scattered Clouds
10:07 PM 64.4 °F 64.4 °F 100% 30.15 in 6.0 mi ESE 2.3 mph - N/A Rain Light Rain
10:12 PM 64.4 °F 64.4 °F 100% 30.15 in 4.0 mi East 3.5 mph - N/A Rain Light Rain
10:17 PM 64.4 °F 64.4 °F 100% 30.15 in 3.0 mi ESE 2.3 mph - N/A Rain Light Rain
10:22 PM 64.4 °F 64.4 °F 100% 30.15 in 5.0 mi Variable 2.3 mph - N/A Rain Light Rain
10:24 PM 64.4 °F 64.4 °F 100% 30.15 in 6.0 mi South 3.5 mph - N/A   Mostly Cloudy
10:26 PM 64.4 °F 64.4 °F 100% 30.15 in 6.0 mi SSE 4.6 mph - N/A Rain Light Rain
10:27 PM 64.4 °F 64.4 °F 100% 30.15 in 6.0 mi SSE 5.8 mph - N/A   Mostly Cloudy
10:32 PM 64.4 °F 64.4 °F 100% 30.15 in 6.0 mi SE 4.6 mph - N/A   Overcast
10:37 PM 64.4 °F 64.4 °F 100% 30.16 in 6.0 mi SE 4.6 mph - N/A   Overcast
10:46 PM 64.4 °F 64.4 °F 100% 30.15 in 5.0 mi SE 3.5 mph - N/A   Light Drizzle
10:58 PM 65.1 °F 65.1 °F 100% 30.16 in 5.0 mi SE 3.5 mph - 0.03 in Rain Light Rain
11:03 PM 64.4 °F 64.4 °F 100% 30.15 in 5.0 mi SSE 3.5 mph - N/A Rain Light Rain
11:08 PM 64.4 °F 64.4 °F 100% 30.15 in 5.0 mi SE 4.6 mph - N/A Rain Light Rain
11:10 PM 64.4 °F 64.4 °F 100% 30.14 in 5.0 mi SE 3.5 mph - N/A   Overcast
11:15 PM 64.4 °F 64.4 °F 100% 30.14 in 5.0 mi SE 3.5 mph - N/A   Overcast
11:20 PM 64.4 °F 64.4 °F 100% 30.14 in 5.0 mi SE 3.5 mph - N/A   Overcast
11:25 PM 64.4 °F 64.4 °F 100% 30.14 in 5.0 mi SE 2.3 mph - N/A   Overcast
11:40 PM 64.4 °F 64.4 °F 100% 30.14 in 5.0 mi SE 3.5 mph - N/A   Overcast
11:55 PM 64.4 °F 64.4 °F 100% 30.13 in 6.0 mi SE 4.6 mph - N/A   Overcast
11:58 PM 65.3 °F 65.3 °F 100% 30.14 in 6.0 mi SSE 5.8 mph - 0.01 in   Overcast